sensor_id;sensor_type;location;lat;lon;timestamp;pressure;altitude;pressure_sealevel;temperature;humidity
38806;BME280;25635;51.146;17.162;2022-11-20T00:01:34;99835.93;;;-5.48;80.37
38806;BME280;25635;51.146;17.162;2022-11-20T00:04:00;99834.20;;;-5.49;80.38
38806;BME280;25635;51.146;17.162;2022-11-20T00:06:28;99832.38;;;-5.52;80.13
38806;BME280;25635;51.146;17.162;2022-11-20T00:08:58;99826.79;;;-5.53;80.38
38806;BME280;25635;51.146;17.162;2022-11-20T00:11:28;99828.38;;;-5.55;80.19
38806;BME280;25635;51.146;17.162;2022-11-20T00:13:57;99822.33;;;-5.57;80.27
38806;BME280;25635;51.146;17.162;2022-11-20T00:16:27;99824.83;;;-5.58;79.97
38806;BME280;25635;51.146;17.162;2022-11-20T00:18:55;99821.23;;;-5.62;79.93
38806;BME280;25635;51.146;17.162;2022-11-20T00:21:27;99822.84;;;-5.64;80.10
38806;BME280;25635;51.146;17.162;2022-11-20T00:23:55;99835.09;;;-5.65;80.32
38806;BME280;25635;51.146;17.162;2022-11-20T00:26:24;99832.63;;;-5.63;80.21
38806;BME280;25635;51.146;17.162;2022-11-20T00:28:57;99833.81;;;-5.65;80.43
38806;BME280;25635;51.146;17.162;2022-11-20T00:31:26;99834.63;;;-5.66;80.39
38806;BME280;25635;51.146;17.162;2022-11-20T00:33:53;99833.67;;;-5.68;80.68
38806;BME280;25635;51.146;17.162;2022-11-20T00:36:21;99831.53;;;-5.68;80.84
38806;BME280;25635;51.146;17.162;2022-11-20T00:38:53;99833.67;;;-5.68;80.77
38806;BME280;25635;51.146;17.162;2022-11-20T00:41:22;99829.30;;;-5.71;80.80
38806;BME280;25635;51.146;17.162;2022-11-20T00:43:49;99830.25;;;-5.68;80.74
38806;BME280;25635;51.146;17.162;2022-11-20T00:46:20;99827.21;;;-5.70;80.92
38806;BME280;25635;51.146;17.162;2022-11-20T00:48:48;99832.39;;;-5.68;80.99
38806;BME280;25635;51.146;17.162;2022-11-20T00:51:17;99837.95;;;-5.67;80.85
38806;BME280;25635;51.146;17.162;2022-11-20T00:53:45;99834.94;;;-5.68;80.76
38806;BME280;25635;51.146;17.162;2022-11-20T00:56:14;99836.22;;;-5.68;80.94
38806;BME280;25635;51.146;17.162;2022-11-20T00:58:43;99839.63;;;-5.67;80.98
38806;BME280;25635;51.146;17.162;2022-11-20T01:01:13;99839.55;;;-5.69;81.03
38806;BME280;25635;51.146;17.162;2022-11-20T01:03:43;99843.00;;;-5.68;80.97
38806;BME280;25635;51.146;17.162;2022-11-20T01:06:17;99841.63;;;-5.70;80.78
38806;BME280;25635;51.146;17.162;2022-11-20T01:08:46;99845.86;;;-5.71;80.77
38806;BME280;25635;51.146;17.162;2022-11-20T01:11:18;99849.51;;;-5.74;80.83
38806;BME280;25635;51.146;17.162;2022-11-20T01:13:48;99849.59;;;-5.72;80.88
38806;BME280;25635;51.146;17.162;2022-11-20T01:16:23;99847.05;;;-5.72;80.95
38806;BME280;25635;51.146;17.162;2022-11-20T01:18:55;99841.45;;;-5.73;80.94
38806;BME280;25635;51.146;17.162;2022-11-20T01:21:28;99846.64;;;-5.72;81.12
38806;BME280;25635;51.146;17.162;2022-11-20T01:23:57;99844.01;;;-5.73;81.11
38806;BME280;25635;51.146;17.162;2022-11-20T01:26:26;99847.05;;;-5.72;80.97
38806;BME280;25635;51.146;17.162;2022-11-20T01:28:54;99853.88;;;-5.71;81.07
38806;BME280;25635;51.146;17.162;2022-11-20T01:31:33;99851.83;;;-5.70;81.10
38806;BME280;25635;51.146;17.162;2022-11-20T01:34:00;99850.55;;;-5.70;81.02
38806;BME280;25635;51.146;17.162;2022-11-20T01:36:29;99844.64;;;-5.69;81.18
38806;BME280;25635;51.146;17.162;2022-11-20T01:38:59;99844.64;;;-5.69;81.12
38806;BME280;25635;51.146;17.162;2022-11-20T01:41:29;99851.01;;;-5.69;81.09
38806;BME280;25635;51.146;17.162;2022-11-20T01:44:17;99842.59;;;-5.68;81.21
38806;BME280;25635;51.146;17.162;2022-11-20T01:46:56;99842.18;;;-5.67;81.14
38806;BME280;25635;51.146;17.162;2022-11-20T01:49:33;99849.42;;;-5.67;81.22
38806;BME280;25635;51.146;17.162;2022-11-20T01:52:24;99838.67;;;-5.70;81.16
38806;BME280;25635;51.146;17.162;2022-11-20T01:57:37;99832.95;;;-5.74;80.95
38806;BME280;25635;51.146;17.162;2022-11-20T02:00:11;99825.54;;;-5.77;81.14
38806;BME280;25635;51.146;17.162;2022-11-20T02:02:41;99822.53;;;-5.78;81.24
38806;BME280;25635;51.146;17.162;2022-11-20T02:05:16;99822.07;;;-5.79;81.41
38806;BME280;25635;51.146;17.162;2022-11-20T02:07:45;99826.49;;;-5.75;81.57
38806;BME280;25635;51.146;17.162;2022-11-20T02:10:12;99825.71;;;-5.74;81.25
38806;BME280;25635;51.146;17.162;2022-11-20T02:12:39;99834.63;;;-5.74;81.29
38806;BME280;25635;51.146;17.162;2022-11-20T02:15:24;99830.31;;;-5.75;80.97
38806;BME280;25635;51.146;17.162;2022-11-20T02:17:50;99833.67;;;-5.76;81.05
38806;BME280;25635;51.146;17.162;2022-11-20T02:20:16;99829.71;;;-5.79;81.24
38806;BME280;25635;51.146;17.162;2022-11-20T02:22:53;99827.16;;;-5.79;80.98
38806;BME280;25635;51.146;17.162;2022-11-20T02:25:33;99821.58;;;-5.80;81.05
38806;BME280;25635;51.146;17.162;2022-11-20T02:28:02;99818.25;;;-5.79;81.46
38806;BME280;25635;51.146;17.162;2022-11-20T02:30:29;99821.80;;;-5.76;81.41
38806;BME280;25635;51.146;17.162;2022-11-20T02:32:55;99826.12;;;-5.75;81.46
38806;BME280;25635;51.146;17.162;2022-11-20T02:37:54;99824.98;;;-5.72;81.10
38806;BME280;25635;51.146;17.162;2022-11-20T02:40:23;99826.17;;;-5.73;81.37
38806;BME280;25635;51.146;17.162;2022-11-20T02:42:55;99823.25;;;-5.73;81.33
38806;BME280;25635;51.146;17.162;2022-11-20T02:45:22;99828.34;;;-5.73;81.24
38806;BME280;25635;51.146;17.162;2022-11-20T02:47:50;99827.45;;;-5.73;81.24
38806;BME280;25635;51.146;17.162;2022-11-20T02:50:16;99831.67;;;-5.74;81.17
38806;BME280;25635;51.146;17.162;2022-11-20T02:52:43;99832.08;;;-5.74;81.13
38806;BME280;25635;51.146;17.162;2022-11-20T02:55:09;99829.04;;;-5.75;80.91
38806;BME280;25635;51.146;17.162;2022-11-20T02:57:36;99833.77;;;-5.75;81.13
38806;BME280;25635;51.146;17.162;2022-11-20T03:00:04;99832.40;;;-5.76;81.08
38806;BME280;25635;51.146;17.162;2022-11-20T03:02:33;99826.81;;;-5.77;81.03
38806;BME280;25635;51.146;17.162;2022-11-20T03:04:59;99826.35;;;-5.78;80.86
38806;BME280;25635;51.146;17.162;2022-11-20T03:07:26;99824.53;;;-5.81;80.70
38806;BME280;25635;51.146;17.162;2022-11-20T03:09:52;99829.45;;;-5.84;80.83
38806;BME280;25635;51.146;17.162;2022-11-20T03:12:18;99831.04;;;-5.86;80.85
38806;BME280;25635;51.146;17.162;2022-11-20T03:14:44;99828.03;;;-5.87;80.79
38806;BME280;25635;51.146;17.162;2022-11-20T03:17:10;99825.41;;;-5.88;80.83
38806;BME280;25635;51.146;17.162;2022-11-20T03:19:36;99823.58;;;-5.91;80.56
38806;BME280;25635;51.146;17.162;2022-11-20T03:22:03;99819.20;;;-5.94;80.54
38806;BME280;25635;51.146;17.162;2022-11-20T03:24:29;99826.16;;;-5.99;80.59
38806;BME280;25635;51.146;17.162;2022-11-20T03:26:55;99821.79;;;-6.02;80.87
38806;BME280;25635;51.146;17.162;2022-11-20T03:29:21;99820.11;;;-6.01;80.99
38806;BME280;25635;51.146;17.162;2022-11-20T03:31:48;99825.61;;;-6.02;80.95
38806;BME280;25635;51.146;17.162;2022-11-20T03:34:14;99820.83;;;-6.04;80.84
38806;BME280;25635;51.146;17.162;2022-11-20T03:36:41;99826.70;;;-6.05;80.84
38806;BME280;25635;51.146;17.162;2022-11-20T03:39:08;99822.33;;;-6.07;80.89
38806;BME280;25635;51.146;17.162;2022-11-20T03:41:40;99827.74;;;-6.09;80.78
38806;BME280;25635;51.146;17.162;2022-11-20T03:44:10;99823.78;;;-6.13;80.84
38806;BME280;25635;51.146;17.162;2022-11-20T03:46:37;99822.42;;;-6.14;80.89
38806;BME280;25635;51.146;17.162;2022-11-20T03:49:04;99823.60;;;-6.16;80.88
38806;BME280;25635;51.146;17.162;2022-11-20T03:51:33;99826.55;;;-6.16;80.96
38806;BME280;25635;51.146;17.162;2022-11-20T03:54:04;99820.41;;;-6.20;80.96
38806;BME280;25635;51.146;17.162;2022-11-20T03:56:34;99818.68;;;-6.21;81.12
38806;BME280;25635;51.146;17.162;2022-11-20T03:59:03;99824.14;;;-6.21;80.72
38806;BME280;25635;51.146;17.162;2022-11-20T04:01:32;99821.36;;;-6.26;80.88
38806;BME280;25635;51.146;17.162;2022-11-20T04:03:59;99821.27;;;-6.27;81.04
38806;BME280;25635;51.146;17.162;2022-11-20T04:06:33;99817.40;;;-6.29;81.23
38806;BME280;25635;51.146;17.162;2022-11-20T04:09:03;99822.08;;;-6.28;81.26
38806;BME280;25635;51.146;17.162;2022-11-20T04:11:32;99825.41;;;-6.29;81.26
38806;BME280;25635;51.146;17.162;2022-11-20T04:14:02;99829.95;;;-6.32;80.95
38806;BME280;25635;51.146;17.162;2022-11-20T04:16:32;99830.58;;;-6.36;81.15
38806;BME280;25635;51.146;17.162;2022-11-20T04:19:02;99837.34;;;-6.37;81.16
38806;BME280;25635;51.146;17.162;2022-11-20T04:21:30;99838.92;;;-6.39;81.19
38806;BME280;25635;51.146;17.162;2022-11-20T04:23:56;99835.42;;;-6.41;81.33
38806;BME280;25635;51.146;17.162;2022-11-20T04:26:25;99842.19;;;-6.41;81.30
38806;BME280;25635;51.146;17.162;2022-11-20T04:28:53;99839.46;;;-6.44;81.22
38806;BME280;25635;51.146;17.162;2022-11-20T04:31:28;99837.73;;;-6.45;81.30
38806;BME280;25635;51.146;17.162;2022-11-20T04:33:58;99832.14;;;-6.46;81.20
38806;BME280;25635;51.146;17.162;2022-11-20T04:36:28;99829.77;;;-6.52;80.93
38806;BME280;25635;51.146;17.162;2022-11-20T04:39:02;99825.39;;;-6.54;81.36
38806;BME280;25635;51.146;17.162;2022-11-20T04:41:31;99824.48;;;-6.55;81.36
38806;BME280;25635;51.146;17.162;2022-11-20T04:43:57;99822.20;;;-6.58;80.92
38806;BME280;25635;51.146;17.162;2022-11-20T04:46:31;99816.22;;;-6.67;80.83
38806;BME280;25635;51.146;17.162;2022-11-20T04:49:00;99816.02;;;-6.78;80.93
38806;BME280;25635;51.146;17.162;2022-11-20T04:51:27;99813.78;;;-6.80;81.53
38806;BME280;25635;51.146;17.162;2022-11-20T04:53:54;99808.60;;;-6.82;81.59
38806;BME280;25635;51.146;17.162;2022-11-20T04:56:20;99809.25;;;-6.78;81.68
38806;BME280;25635;51.146;17.162;2022-11-20T04:58:46;99813.06;;;-6.78;81.73
38806;BME280;25635;51.146;17.162;2022-11-20T05:01:15;99814.52;;;-6.75;81.63
38806;BME280;25635;51.146;17.162;2022-11-20T05:03:44;99815.89;;;-6.73;81.74
38806;BME280;25635;51.146;17.162;2022-11-20T05:06:12;99813.09;;;-6.69;81.87
38806;BME280;25635;51.146;17.162;2022-11-20T05:08:40;99811.51;;;-6.67;81.85
38806;BME280;25635;51.146;17.162;2022-11-20T05:11:09;99799.28;;;-6.66;81.85
38806;BME280;25635;51.146;17.162;2022-11-20T05:13:37;99795.93;;;-6.65;82.00
38806;BME280;25635;51.146;17.162;2022-11-20T05:16:07;99793.80;;;-6.66;81.73
38806;BME280;25635;51.146;17.162;2022-11-20T05:18:36;99790.53;;;-6.63;81.87
38806;BME280;25635;51.146;17.162;2022-11-20T05:21:03;99782.25;;;-6.67;81.89
38806;BME280;25635;51.146;17.162;2022-11-20T05:23:31;99783.21;;;-6.65;81.72
38806;BME280;25635;51.146;17.162;2022-11-20T05:25:58;99784.42;;;-6.67;81.57
38806;BME280;25635;51.146;17.162;2022-11-20T05:28:26;99780.52;;;-6.68;81.40
38806;BME280;25635;51.146;17.162;2022-11-20T05:30:53;99788.47;;;-6.70;81.38
38806;BME280;25635;51.146;17.162;2022-11-20T05:33:20;99785.92;;;-6.70;81.37
38806;BME280;25635;51.146;17.162;2022-11-20T05:35:48;99781.23;;;-6.71;81.57
38806;BME280;25635;51.146;17.162;2022-11-20T05:38:14;99779.06;;;-6.72;81.78
38806;BME280;25635;51.146;17.162;2022-11-20T05:40:41;99787.19;;;-6.70;81.82
38806;BME280;25635;51.146;17.162;2022-11-20T05:43:07;99784.16;;;-6.72;81.87
38806;BME280;25635;51.146;17.162;2022-11-20T05:45:33;99780.59;;;-6.75;81.57
38806;BME280;25635;51.146;17.162;2022-11-20T05:48:00;99772.47;;;-6.76;81.67
38806;BME280;25635;51.146;17.162;2022-11-20T05:50:27;99780.59;;;-6.75;81.60
38806;BME280;25635;51.146;17.162;2022-11-20T05:52:54;99780.50;;;-6.77;81.76
38806;BME280;25635;51.146;17.162;2022-11-20T05:55:20;99781.77;;;-6.77;81.63
38806;BME280;25635;51.146;17.162;2022-11-20T05:57:46;99785.09;;;-6.78;81.58
38806;BME280;25635;51.146;17.162;2022-11-20T06:00:13;99778.73;;;-6.78;81.66
38806;BME280;25635;51.146;17.162;2022-11-20T06:02:40;99776.19;;;-6.78;81.79
38806;BME280;25635;51.146;17.162;2022-11-20T06:05:07;99781.37;;;-6.76;81.70
38806;BME280;25635;51.146;17.162;2022-11-20T06:07:33;99777.15;;;-6.76;82.02
38806;BME280;25635;51.146;17.162;2022-11-20T06:09:59;99782.02;;;-6.72;82.10
38806;BME280;25635;51.146;17.162;2022-11-20T06:12:25;99778.70;;;-6.71;82.01
38806;BME280;25635;51.146;17.162;2022-11-20T06:14:52;99773.92;;;-6.73;81.88
38806;BME280;25635;51.146;17.162;2022-11-20T06:17:18;99774.30;;;-6.74;81.90
38806;BME280;25635;51.146;17.162;2022-11-20T06:19:44;99771.75;;;-6.74;81.76
38806;BME280;25635;51.146;17.162;2022-11-20T06:22:11;99772.00;;;-6.77;81.59
38806;BME280;25635;51.146;17.162;2022-11-20T06:24:37;99768.19;;;-6.77;81.64
38806;BME280;25635;51.146;17.162;2022-11-20T06:27:03;99769.83;;;-6.78;81.76
38806;BME280;25635;51.146;17.162;2022-11-20T06:29:29;99765.23;;;-6.77;81.95
38806;BME280;25635;51.146;17.162;2022-11-20T06:31:55;99770.11;;;-6.73;82.07
38806;BME280;25635;51.146;17.162;2022-11-20T06:34:21;99762.07;;;-6.73;81.59
38806;BME280;25635;51.146;17.162;2022-11-20T06:36:47;99767.16;;;-6.73;81.72
38806;BME280;25635;51.146;17.162;2022-11-20T06:39:13;99762.07;;;-6.73;81.73
38806;BME280;25635;51.146;17.162;2022-11-20T06:41:39;99763.75;;;-6.73;81.80
38806;BME280;25635;51.146;17.162;2022-11-20T06:44:05;99762.84;;;-6.74;81.72
38806;BME280;25635;51.146;17.162;2022-11-20T06:46:32;99763.25;;;-6.74;81.79
38806;BME280;25635;51.146;17.162;2022-11-20T06:48:58;99765.39;;;-6.74;81.63
38806;BME280;25635;51.146;17.162;2022-11-20T06:51:24;99761.20;;;-6.73;81.67
38806;BME280;25635;51.146;17.162;2022-11-20T06:53:50;99761.98;;;-6.74;81.61
38806;BME280;25635;51.146;17.162;2022-11-20T06:56:16;99760.39;;;-6.72;81.63
38806;BME280;25635;51.146;17.162;2022-11-20T06:58:43;99766.84;;;-6.70;81.80
38806;BME280;25635;51.146;17.162;2022-11-20T07:01:11;99771.62;;;-6.68;82.05
38806;BME280;25635;51.146;17.162;2022-11-20T07:03:38;99779.08;;;-6.63;82.16
38806;BME280;25635;51.146;17.162;2022-11-20T07:06:06;99773.86;;;-6.58;82.34
38806;BME280;25635;51.146;17.162;2022-11-20T07:08:35;99772.28;;;-6.56;82.00
38806;BME280;25635;51.146;17.162;2022-11-20T07:11:04;99774.97;;;-6.53;82.28
38806;BME280;25635;51.146;17.162;2022-11-20T07:13:32;99775.20;;;-6.48;82.52
38806;BME280;25635;51.146;17.162;2022-11-20T07:16:00;99773.39;;;-6.43;82.73
38806;BME280;25635;51.146;17.162;2022-11-20T07:18:30;99774.03;;;-6.39;82.55
38806;BME280;25635;51.146;17.162;2022-11-20T07:21:02;99771.34;;;-6.34;82.79
38806;BME280;25635;51.146;17.162;2022-11-20T07:23:29;99766.55;;;-6.27;82.64
38806;BME280;25635;51.146;17.162;2022-11-20T07:25:55;99768.86;;;-6.24;82.67
38806;BME280;25635;51.146;17.162;2022-11-20T07:28:21;99766.95;;;-6.20;82.77
38806;BME280;25635;51.146;17.162;2022-11-20T07:30:51;99760.45;;;-6.15;82.76
38806;BME280;25635;51.146;17.162;2022-11-20T07:33:19;99764.59;;;-6.08;82.88
38806;BME280;25635;51.146;17.162;2022-11-20T07:35:45;99768.63;;;-6.04;82.79
38806;BME280;25635;51.146;17.162;2022-11-20T07:38:11;99761.62;;;-6.00;83.04
38806;BME280;25635;51.146;17.162;2022-11-20T07:40:37;99759.82;;;-5.93;83.10
38806;BME280;25635;51.146;17.162;2022-11-20T07:43:03;99763.49;;;-5.87;83.00
38806;BME280;25635;51.146;17.162;2022-11-20T07:45:29;99760.84;;;-5.81;83.03
38806;BME280;25635;51.146;17.162;2022-11-20T07:47:55;99760.34;;;-5.74;83.19
38806;BME280;25635;51.146;17.162;2022-11-20T07:50:22;99761.20;;;-5.65;83.24
38806;BME280;25635;51.146;17.162;2022-11-20T07:52:48;99751.71;;;-5.59;83.20
38806;BME280;25635;51.146;17.162;2022-11-20T07:55:14;99746.19;;;-5.51;83.44
38806;BME280;25635;51.146;17.162;2022-11-20T07:57:40;99742.42;;;-5.41;83.47
38806;BME280;25635;51.146;17.162;2022-11-20T08:00:08;99735.16;;;-5.33;83.57
38806;BME280;25635;51.146;17.162;2022-11-20T08:02:38;99734.38;;;-5.22;83.70
38806;BME280;25635;51.146;17.162;2022-11-20T08:05:07;99739.45;;;-5.14;83.49
38806;BME280;25635;51.146;17.162;2022-11-20T08:07:41;99741.55;;;-5.05;83.57
38806;BME280;25635;51.146;17.162;2022-11-20T08:10:11;99744.19;;;-4.94;83.81
38806;BME280;25635;51.146;17.162;2022-11-20T08:12:47;99737.36;;;-4.85;83.63
38806;BME280;25635;51.146;17.162;2022-11-20T08:15:34;99738.66;;;-4.76;83.63
38806;BME280;25635;51.146;17.162;2022-11-20T08:18:03;99736.19;;;-4.64;83.38
38806;BME280;25635;51.146;17.162;2022-11-20T08:20:31;99730.57;;;-4.57;83.46
38806;BME280;25635;51.146;17.162;2022-11-20T08:22:59;99732.13;;;-4.51;83.44
38806;BME280;25635;51.146;17.162;2022-11-20T08:25:28;99731.24;;;-4.42;83.31
38806;BME280;25635;51.146;17.162;2022-11-20T08:28:02;99731.18;;;-4.34;83.35
38806;BME280;25635;51.146;17.162;2022-11-20T08:30:26;99733.82;;;-4.22;83.64
38806;BME280;25635;51.146;17.162;2022-11-20T08:32:52;99729.55;;;-4.12;83.63
38806;BME280;25635;51.146;17.162;2022-11-20T08:35:20;99726.20;;;-4.01;83.91
38806;BME280;25635;51.146;17.162;2022-11-20T08:37:47;99717.23;;;-3.92;83.70
38806;BME280;25635;51.146;17.162;2022-11-20T08:40:14;99712.98;;;-3.81;83.50
38806;BME280;25635;51.146;17.162;2022-11-20T08:42:48;99714.31;;;-3.70;83.57
38806;BME280;25635;51.146;17.162;2022-11-20T08:45:16;99713.06;;;-3.59;83.70
38806;BME280;25635;51.146;17.162;2022-11-20T08:47:44;99712.14;;;-3.50;83.12
38806;BME280;25635;51.146;17.162;2022-11-20T08:50:13;99709.97;;;-3.40;83.40
38806;BME280;25635;51.146;17.162;2022-11-20T08:52:42;99712.88;;;-3.31;83.30
38806;BME280;25635;51.146;17.162;2022-11-20T08:55:09;99709.11;;;-3.18;83.57
38806;BME280;25635;51.146;17.162;2022-11-20T08:57:36;99705.52;;;-3.12;83.14
38806;BME280;25635;51.146;17.162;2022-11-20T09:00:05;99709.31;;;-3.02;83.22
38806;BME280;25635;51.146;17.162;2022-11-20T09:02:32;99705.44;;;-2.93;83.17
38806;BME280;25635;51.146;17.162;2022-11-20T09:04:59;99699.89;;;-2.81;83.12
38806;BME280;25635;51.146;17.162;2022-11-20T09:07:28;99699.35;;;-2.72;83.16
38806;BME280;25635;51.146;17.162;2022-11-20T09:09:56;99698.88;;;-2.62;82.99
38806;BME280;25635;51.146;17.162;2022-11-20T09:12:22;99698.41;;;-2.52;82.91
38806;BME280;25635;51.146;17.162;2022-11-20T09:14:48;99697.50;;;-2.41;82.95
38806;BME280;25635;51.146;17.162;2022-11-20T09:17:14;99693.53;;;-2.33;83.01
38806;BME280;25635;51.146;17.162;2022-11-20T09:19:40;99691.25;;;-2.25;82.98
38806;BME280;25635;51.146;17.162;2022-11-20T09:22:07;99691.97;;;-2.16;82.79
38806;BME280;25635;51.146;17.162;2022-11-20T09:24:33;99700.86;;;-2.07;82.55
38806;BME280;25635;51.146;17.162;2022-11-20T09:27:02;99695.12;;;-1.99;82.71
38806;BME280;25635;51.146;17.162;2022-11-20T09:29:29;99691.90;;;-1.94;82.33
38806;BME280;25635;51.146;17.162;2022-11-20T09:31:55;99680.99;;;-1.88;82.34
38806;BME280;25635;51.146;17.162;2022-11-20T09:34:21;99681.23;;;-1.80;82.31
38806;BME280;25635;51.146;17.162;2022-11-20T09:36:47;99679.34;;;-1.73;82.37
38806;BME280;25635;51.146;17.162;2022-11-20T09:39:13;99677.02;;;-1.66;82.50
38806;BME280;25635;51.146;17.162;2022-11-20T09:50:27;99668.73;;;-1.30;82.00
38806;BME280;25635;51.146;17.162;2022-11-20T09:56:02;99660.06;;;-1.20;80.50
38806;BME280;25635;51.146;17.162;2022-11-20T09:58:38;99653.72;;;-1.17;80.53
38806;BME280;25635;51.146;17.162;2022-11-20T10:01:17;99649.20;;;-1.12;80.58
38806;BME280;25635;51.146;17.162;2022-11-20T10:06:34;99647.44;;;-0.98;80.01
38806;BME280;25635;51.146;17.162;2022-11-20T10:09:16;99641.69;;;-0.91;80.34
38806;BME280;25635;51.146;17.162;2022-11-20T10:11:56;99648.41;;;-0.80;80.24
38806;BME280;25635;51.146;17.162;2022-11-20T10:20:27;99640.00;;;-0.60;80.20
38806;BME280;25635;51.146;17.162;2022-11-20T10:26:16;99636.21;;;-0.57;78.95
38806;BME280;25635;51.146;17.162;2022-11-20T10:31:42;99631.58;;;-0.39;79.38
38806;BME280;25635;51.146;17.162;2022-11-20T10:34:27;99617.62;;;-0.33;79.47
38806;BME280;25635;51.146;17.162;2022-11-20T10:36:56;99611.26;;;-0.30;78.79
38806;BME280;25635;51.146;17.162;2022-11-20T10:42:36;99606.81;;;-0.19;79.09
38806;BME280;25635;51.146;17.162;2022-11-20T10:48:10;99603.27;;;-0.07;78.66
38806;BME280;25635;51.146;17.162;2022-11-20T10:50:40;99602.62;;;0.00;78.80
38806;BME280;25635;51.146;17.162;2022-11-20T10:53:20;99599.68;;;0.04;78.67
38806;BME280;25635;51.146;17.162;2022-11-20T10:56:02;99601.92;;;0.07;78.33
38806;BME280;25635;51.146;17.162;2022-11-20T10:58:38;99600.59;;;0.06;77.26
38806;BME280;25635;51.146;17.162;2022-11-20T11:01:13;99596.84;;;0.10;77.98
38806;BME280;25635;51.146;17.162;2022-11-20T11:03:44;99592.73;;;0.17;78.55
38806;BME280;25635;51.146;17.162;2022-11-20T11:09:02;99590.42;;;0.28;77.15
38806;BME280;25635;51.146;17.162;2022-11-20T11:11:32;99586.41;;;0.22;76.26
38806;BME280;25635;51.146;17.162;2022-11-20T11:14:11;99584.70;;;0.22;76.48
38806;BME280;25635;51.146;17.162;2022-11-20T11:16:53;99581.33;;;0.25;76.90
38806;BME280;25635;51.146;17.162;2022-11-20T11:19:20;99580.23;;;0.32;77.29
38806;BME280;25635;51.146;17.162;2022-11-20T11:21:52;99576.86;;;0.35;76.04
38806;BME280;25635;51.146;17.162;2022-11-20T11:24:28;99573.47;;;0.36;76.58
38806;BME280;25635;51.146;17.162;2022-11-20T11:26:56;99577.00;;;0.41;76.48
38806;BME280;25635;51.146;17.162;2022-11-20T11:29:24;99580.04;;;0.42;75.84
38806;BME280;25635;51.146;17.162;2022-11-20T11:32:05;99581.33;;;0.44;75.86
38806;BME280;25635;51.146;17.162;2022-11-20T11:34:31;99572.32;;;0.42;75.92
38806;BME280;25635;51.146;17.162;2022-11-20T11:36:58;99562.94;;;0.46;75.64
38806;BME280;25635;51.146;17.162;2022-11-20T11:39:27;99554.41;;;0.47;75.68
38806;BME280;25635;51.146;17.162;2022-11-20T11:41:55;99556.64;;;0.50;75.13
38806;BME280;25635;51.146;17.162;2022-11-20T11:44:28;99546.40;;;0.53;75.34
38806;BME280;25635;51.146;17.162;2022-11-20T11:47:32;99546.84;;;0.54;75.62
38806;BME280;25635;51.146;17.162;2022-11-20T11:55:35;99535.37;;;0.59;74.35
38806;BME280;25635;51.146;17.162;2022-11-20T12:07:18;99522.78;;;0.73;74.84
38806;BME280;25635;51.146;17.162;2022-11-20T12:09:51;99525.86;;;0.75;74.43
38806;BME280;25635;51.146;17.162;2022-11-20T12:12:23;99521.19;;;0.78;74.37
38806;BME280;25635;51.146;17.162;2022-11-20T12:14:52;99520.81;;;0.81;73.98
38806;BME280;25635;51.146;17.162;2022-11-20T12:17:19;99522.22;;;0.86;72.18
38806;BME280;25635;51.146;17.162;2022-11-20T12:19:45;99523.04;;;0.85;73.58
38806;BME280;25635;51.146;17.162;2022-11-20T12:25:22;99519.22;;;0.87;73.42
38806;BME280;25635;51.146;17.162;2022-11-20T12:34:04;99508.69;;;0.96;73.35
38806;BME280;25635;51.146;17.162;2022-11-20T12:39:33;99504.41;;;0.97;73.45
38806;BME280;25635;51.146;17.162;2022-11-20T12:45:22;99510.38;;;0.96;73.25
38806;BME280;25635;51.146;17.162;2022-11-20T12:57:20;99502.22;;;0.95;72.91
38806;BME280;25635;51.146;17.162;2022-11-20T12:59:53;99496.98;;;0.90;73.37
38806;BME280;25635;51.146;17.162;2022-11-20T13:06:05;99493.55;;;0.91;73.18
38806;BME280;25635;51.146;17.162;2022-11-20T13:08:53;99492.23;;;0.90;72.69
38806;BME280;25635;51.146;17.162;2022-11-20T13:11:34;99487.00;;;0.85;72.78
38806;BME280;25635;51.146;17.162;2022-11-20T13:14:16;99480.39;;;0.76;72.79
38806;BME280;25635;51.146;17.162;2022-11-20T13:17:05;99481.16;;;0.72;72.80
38806;BME280;25635;51.146;17.162;2022-11-20T13:19:54;99471.25;;;0.70;72.76
38806;BME280;25635;51.146;17.162;2022-11-20T13:25:34;99467.31;;;0.67;72.99
38806;BME280;25635;51.146;17.162;2022-11-20T13:30:51;99456.42;;;0.58;72.80
38806;BME280;25635;51.146;17.162;2022-11-20T13:33:25;99453.33;;;0.52;72.76
38806;BME280;25635;51.146;17.162;2022-11-20T13:36:02;99446.77;;;0.46;72.88
38806;BME280;25635;51.146;17.162;2022-11-20T13:38:44;99443.30;;;0.44;72.69
38806;BME280;25635;51.146;17.162;2022-11-20T13:44:23;99443.56;;;0.37;72.66
38806;BME280;25635;51.146;17.162;2022-11-20T13:46:39;99447.38;;;0.34;72.25
38806;BME280;25635;51.146;17.162;2022-11-20T13:49:10;99453.71;;;0.30;72.29
38806;BME280;25635;51.146;17.162;2022-11-20T13:58:12;99441.06;;;0.20;72.10
38806;BME280;25635;51.146;17.162;2022-11-20T14:03:25;99430.59;;;0.12;72.36
38806;BME280;25635;51.146;17.162;2022-11-20T14:05:58;99429.69;;;0.09;72.19
38806;BME280;25635;51.146;17.162;2022-11-20T14:08:35;99434.75;;;0.06;72.20
38806;BME280;25635;51.146;17.162;2022-11-20T14:11:14;99427.84;;;0.03;72.05
38806;BME280;25635;51.146;17.162;2022-11-20T14:16:31;99425.56;;;-0.04;72.26
38806;BME280;25635;51.146;17.162;2022-11-20T14:22:06;99421.56;;;-0.10;72.30
38806;BME280;25635;51.146;17.162;2022-11-20T14:24:33;99419.38;;;-0.12;72.60
38806;BME280;25635;51.146;17.162;2022-11-20T14:27:00;99415.86;;;-0.15;72.28
38806;BME280;25635;51.146;17.162;2022-11-20T14:29:29;99416.70;;;-0.16;72.39
38806;BME280;25635;51.146;17.162;2022-11-20T14:32:01;99418.38;;;-0.18;72.66
38806;BME280;25635;51.146;17.162;2022-11-20T14:34:32;99423.52;;;-0.18;72.39
38806;BME280;25635;51.146;17.162;2022-11-20T14:37:01;99416.19;;;-0.21;72.64
38806;BME280;25635;51.146;17.162;2022-11-20T14:39:32;99410.09;;;-0.24;72.64
38806;BME280;25635;51.146;17.162;2022-11-20T14:42:01;99409.62;;;-0.27;72.72
38806;BME280;25635;51.146;17.162;2022-11-20T14:44:31;99408.19;;;-0.33;72.59
38806;BME280;25635;51.146;17.162;2022-11-20T14:47:01;99413.63;;;-0.38;72.98
38806;BME280;25635;51.146;17.162;2022-11-20T14:49:30;99416.05;;;-0.44;72.90
38806;BME280;25635;51.146;17.162;2022-11-20T14:52:12;99410.70;;;-0.53;72.94
38806;BME280;25635;51.146;17.162;2022-11-20T14:54:48;99410.88;;;-0.63;73.19